Time,TemperatureF,DewpointF,PressureIn,WindDirection,WindDirectionDegrees,WindSpeedMPH,WindSpeedGustMPH,Humidity,HourlyPrecipIn,Conditions,Clouds,dailyrainin,SoftwareType,DateUTC
2013-02-05 00:00:00,41.3,33.0,29.95,NNE,15,0.0,4.0,71,0.00,,,0.00,weatherlink.com 1.10,2013-02-05 06:00:00,
2013-02-05 00:15:00,40.3,32.0,29.95,NNE,15,0.0,3.0,73,0.00,,,0.00,weatherlink.com 1.10,2013-02-05 06:15:00,
2013-02-05 00:30:00,39.6,32.0,29.94,North,9,0.0,4.0,74,0.00,,,0.00,weatherlink.com 1.10,2013-02-05 06:30:00,
2013-02-05 00:45:00,39.4,32.0,29.94,NNE,20,4.0,5.0,75,0.00,,,0.00,weatherlink.com 1.10,2013-02-05 06:45:00,
2013-02-05 01:00:00,39.0,32.0,29.94,North,5,0.0,4.0,76,0.00,,,0.00,weatherlink.com 1.10,2013-02-05 07:00:00,
2013-02-05 01:15:00,38.2,32.0,29.94,North,5,1.0,5.0,77,0.00,,,0.00,weatherlink.com 1.10,2013-02-05 07:15:00,
2013-02-05 01:30:00,37.8,32.0,29.94,NNE,19,0.0,5.0,78,0.00,,,0.00,weatherlink.com 1.10,2013-02-05 07:30:00,
2013-02-05 01:45:00,37.0,31.0,29.93,NE,38,0.0,3.0,79,0.00,,,0.00,weatherlink.com 1.10,2013-02-05 07:45:00,
2013-02-05 02:00:00,36.2,31.0,29.93,NE,38,0.0,0.0,81,0.00,,,0.00,weatherlink.com 1.10,2013-02-05 08:00:00,
2013-02-05 02:15:00,36.0,31.0,29.93,NE,38,0.0,3.0,82,0.00,,,0.00,weatherlink.com 1.10,2013-02-05 08:15:00,
2013-02-05 02:30:00,35.6,31.0,29.92,North,11,0.0,0.0,82,0.00,,,0.00,weatherlink.com 1.10,2013-02-05 08:30:00,
2013-02-05 02:45:00,35.3,31.0,29.92,North,11,0.0,0.0,83,0.00,,,0.00,weatherlink.com 1.10,2013-02-05 08:45:00,
2013-02-05 03:00:00,35.5,31.0,29.92,North,11,0.0,0.0,83,0.00,,,0.00,weatherlink.com 1.10,2013-02-05 09:00:00,
2013-02-05 03:15:00,35.2,31.0,29.91,North,11,0.0,0.0,83,0.00,,,0.00,weatherlink.com 1.10,2013-02-05 09:15:00,
2013-02-05 03:30:00,34.9,31.0,29.91,North,11,0.0,0.0,84,0.00,,,0.00,weatherlink.com 1.10,2013-02-05 09:30:00,
2013-02-05 03:45:00,34.3,30.0,29.92,North,11,0.0,0.0,85,0.00,,,0.00,weatherlink.com 1.10,2013-02-05 09:45:00,
2013-02-05 04:00:00,33.7,30.0,29.92,North,11,0.0,0.0,85,0.00,,,0.00,weatherlink.com 1.10,2013-02-05 10:00:00,
2013-02-05 04:15:00,34.1,30.0,29.92,North,11,0.0,0.0,85,0.00,,,0.00,weatherlink.com 1.10,2013-02-05 10:15:00,
2013-02-05 04:30:00,33.4,30.0,29.93,North,11,0.0,0.0,86,0.00,,,0.00,weatherlink.com 1.10,2013-02-05 10:30:00,
2013-02-05 04:45:00,33.7,30.0,29.93,North,11,0.0,0.0,86,0.00,,,0.00,weatherlink.com 1.10,2013-02-05 10:45:00,
2013-02-05 05:00:00,33.5,30.0,29.93,North,11,0.0,0.0,85,0.00,,,0.00,weatherlink.com 1.10,2013-02-05 11:00:00,
2013-02-05 05:15:00,33.3,30.0,29.94,North,11,0.0,0.0,86,0.00,,,0.00,weatherlink.com 1.10,2013-02-05 11:15:00,
2013-02-05 05:30:00,32.9,30.0,29.94,North,11,0.0,0.0,87,0.00,,,0.00,weatherlink.com 1.10,2013-02-05 11:30:00,
2013-02-05 05:45:00,32.7,29.0,29.95,North,11,0.0,0.0,87,0.00,,,0.00,weatherlink.com 1.10,2013-02-05 11:45:00,
2013-02-05 06:00:00,31.0,28.0,29.94,North,11,0.0,0.0,87,0.00,,,0.00,weatherlink.com 1.10,2013-02-05 12:00:00,
2013-02-05 06:16:00,30.0,27.0,29.96,North,11,0.0,0.0,89,0.00,,,0.00,weatherlink.com 1.10,2013-02-05 12:16:00,
2013-02-05 06:31:00,29.6,27.0,29.96,North,11,0.0,0.0,90,0.00,,,0.00,weatherlink.com 1.10,2013-02-05 12:31:00,
2013-02-05 06:46:00,29.9,27.0,29.97,North,11,0.0,0.0,90,0.00,,,0.00,weatherlink.com 1.10,2013-02-05 12:46:00,
2013-02-05 07:01:00,30.0,28.0,29.97,North,11,0.0,0.0,91,0.00,,,0.00,weatherlink.com 1.10,2013-02-05 13:01:00,
2013-02-05 07:16:00,30.8,29.0,29.98,North,11,0.0,0.0,91,0.00,,,0.00,weatherlink.com 1.10,2013-02-05 13:16:00,
2013-02-05 07:31:00,31.4,29.0,29.98,North,11,0.0,0.0,91,0.00,,,0.00,weatherlink.com 1.10,2013-02-05 13:31:00,
2013-02-05 07:46:00,31.5,29.0,29.98,North,11,0.0,0.0,90,0.00,,,0.00,weatherlink.com 1.10,2013-02-05 13:46:00,
2013-02-05 08:01:00,32.7,30.0,29.99,North,11,0.0,0.0,89,0.00,,,0.00,weatherlink.com 1.10,2013-02-05 14:01:00,
2013-02-05 08:16:00,33.7,31.0,29.99,North,11,0.0,0.0,88,0.00,,,0.00,weatherlink.com 1.10,2013-02-05 14:16:00,
2013-02-05 08:31:00,35.6,32.0,30.00,North,11,0.0,0.0,86,0.00,,,0.00,weatherlink.com 1.10,2013-02-05 14:31:00,
2013-02-05 08:46:00,37.0,33.0,30.00,North,11,0.0,0.0,84,0.00,,,0.00,weatherlink.com 1.10,2013-02-05 14:46:00,
2013-02-05 09:01:00,38.4,34.0,30.00,North,11,0.0,0.0,83,0.00,,,0.00,weatherlink.com 1.10,2013-02-05 15:01:00,
2013-02-05 09:16:00,39.9,35.0,30.01,North,11,0.0,0.0,81,0.00,,,0.00,weatherlink.com 1.10,2013-02-05 15:16:00,
2013-02-05 09:31:00,40.4,35.0,30.02,SW,221,0.0,0.0,81,0.00,,,0.00,weatherlink.com 1.10,2013-02-05 15:31:00,
2013-02-05 09:46:00,42.7,37.0,30.02,SSW,196,3.0,5.0,80,0.00,,,0.00,weatherlink.com 1.10,2013-02-05 15:46:00,
2013-02-05 10:01:00,43.4,37.0,30.02,SSW,196,0.0,3.0,79,0.00,,,0.00,weatherlink.com 1.10,2013-02-05 16:01:00,
2013-02-05 10:16:00,45.4,38.0,30.03,SSW,196,0.0,0.0,75,0.00,,,0.00,weatherlink.com 1.10,2013-02-05 16:16:00,
2013-02-05 10:31:00,47.1,40.0,30.03,SSW,193,2.0,6.0,76,0.00,,,0.00,weatherlink.com 1.10,2013-02-05 16:31:00,
2013-02-05 10:46:00,48.4,42.0,30.03,South,170,5.0,7.0,78,0.00,,,0.00,weatherlink.com 1.10,2013-02-05 16:46:00,
2013-02-05 11:01:00,50.8,45.0,30.03,SW,225,3.0,7.0,79,0.00,,,0.00,weatherlink.com 1.10,2013-02-05 17:01:00,
2013-02-05 11:16:00,52.7,44.0,30.03,SSW,194,3.0,8.0,73,0.00,,,0.00,weatherlink.com 1.10,2013-02-05 17:16:00,
2013-02-05 11:31:00,53.4,44.0,30.04,WSW,244,2.0,6.0,71,0.00,,,0.00,weatherlink.com 1.10,2013-02-05 17:31:00,
2013-02-05 11:46:00,54.6,44.0,30.03,SW,215,0.0,3.0,68,0.00,,,0.00,weatherlink.com 1.10,2013-02-05 17:46:00,
2013-02-05 12:01:00,55.5,44.0,30.02,SSW,205,0.0,6.0,66,0.00,,,0.00,weatherlink.com 1.10,2013-02-05 18:01:00,
2013-02-05 12:16:00,56.4,44.0,30.02,SW,218,0.0,3.0,64,0.00,,,0.00,weatherlink.com 1.10,2013-02-05 18:16:00,
2013-02-05 12:31:00,59.0,45.0,30.01,SW,218,0.0,4.0,60,0.00,,,0.00,weatherlink.com 1.10,2013-02-05 18:31:00,
2013-02-05 12:46:00,60.9,45.0,30.01,SW,218,0.0,5.0,56,0.00,,,0.00,weatherlink.com 1.10,2013-02-05 18:46:00,
2013-02-05 13:01:00,61.2,42.0,30.00,SW,218,0.0,2.0,49,0.00,,,0.00,weatherlink.com 1.10,2013-02-05 19:01:00,
2013-02-05 13:16:00,61.7,41.0,30.00,NW,311,0.0,5.0,47,0.00,,,0.00,weatherlink.com 1.10,2013-02-05 19:16:00,
2013-02-05 13:31:00,62.4,40.0,29.99,WNW,298,0.0,4.0,44,0.00,,,0.00,weatherlink.com 1.10,2013-02-05 19:31:00,
2013-02-05 13:47:00,63.3,38.0,29.99,West,260,2.0,7.0,39,0.00,,,0.00,weatherlink.com 1.10,2013-02-05 19:47:00,
2013-02-05 14:02:00,64.6,36.0,29.98,WSW,240,1.0,5.0,35,0.00,,,0.00,weatherlink.com 1.10,2013-02-05 20:02:00,
2013-02-05 14:17:00,64.3,37.0,29.98,WNW,303,0.0,5.0,36,0.00,,,0.00,weatherlink.com 1.10,2013-02-05 20:17:00,
2013-02-05 14:32:00,64.9,38.0,29.98,North,360,3.0,5.0,37,0.00,,,0.00,weatherlink.com 1.10,2013-02-05 20:32:00,
2013-02-05 14:47:00,65.3,36.0,29.98,NW,321,2.0,5.0,34,0.00,,,0.00,weatherlink.com 1.10,2013-02-05 20:47:00,
2013-02-05 15:02:00,64.8,35.0,29.97,North,5,0.0,6.0,33,0.00,,,0.00,weatherlink.com 1.10,2013-02-05 21:02:00,
2013-02-05 15:17:00,65.2,35.0,29.97,North,5,3.0,5.0,33,0.00,,,0.00,weatherlink.com 1.10,2013-02-05 21:17:00,
2013-02-05 15:32:00,65.2,34.0,29.97,NNE,27,0.0,9.0,32,0.00,,,0.00,weatherlink.com 1.10,2013-02-05 21:32:00,
2013-02-05 15:47:00,65.6,36.0,29.98,NW,326,2.0,4.0,34,0.00,,,0.00,weatherlink.com 1.10,2013-02-05 21:47:00,
2013-02-05 16:02:00,65.5,36.0,29.98,NW,326,0.0,4.0,34,0.00,,,0.00,weatherlink.com 1.10,2013-02-05 22:02:00,
2013-02-05 16:17:00,65.4,35.0,29.98,NW,323,0.0,7.0,32,0.00,,,0.00,weatherlink.com 1.10,2013-02-05 22:17:00,
2013-02-05 16:32:00,65.3,35.0,29.98,NNW,329,0.0,4.0,33,0.00,,,0.00,weatherlink.com 1.10,2013-02-05 22:32:00,
2013-02-05 16:47:00,64.8,35.0,29.98,North,9,4.0,5.0,33,0.00,,,0.00,weatherlink.com 1.10,2013-02-05 22:47:00,
2013-02-05 17:02:00,64.6,35.0,29.98,North,9,0.0,5.0,33,0.00,,,0.00,weatherlink.com 1.10,2013-02-05 23:02:00,
2013-02-05 17:17:00,63.8,36.0,29.98,North,9,0.0,4.0,35,0.00,,,0.00,weatherlink.com 1.10,2013-02-05 23:17:00,
2013-02-05 17:32:00,63.2,35.0,29.98,NE,44,0.0,0.0,35,0.00,,,0.00,weatherlink.com 1.10,2013-02-05 23:32:00,
2013-02-05 17:47:00,62.3,34.0,29.98,NE,44,0.0,0.0,35,0.00,,,0.00,weatherlink.com 1.10,2013-02-05 23:47:00,
2013-02-05 18:02:00,60.7,36.0,29.98,NE,44,0.0,0.0,40,0.00,,,0.00,weatherlink.com 1.10,2013-02-06 00:02:00,
2013-02-05 18:17:00,58.8,39.0,29.99,NE,44,0.0,0.0,48,0.00,,,0.00,weatherlink.com 1.10,2013-02-06 00:17:00,
2013-02-05 18:32:00,57.7,39.0,29.99,NE,44,0.0,0.0,51,0.00,,,0.00,weatherlink.com 1.10,2013-02-06 00:32:00,
2013-02-05 18:47:00,56.6,39.0,29.99,NE,44,0.0,0.0,53,0.00,,,0.00,weatherlink.com 1.10,2013-02-06 00:47:00,
2013-02-05 19:17:00,53.5,38.0,30.00,NE,44,0.0,0.0,56,0.00,,,0.00,weatherlink.com 1.10,2013-02-06 01:17:00,
2013-02-05 19:32:00,52.7,38.0,30.01,NE,43,0.0,0.0,58,0.00,,,0.00,weatherlink.com 1.10,2013-02-06 01:32:00,
2013-02-05 19:47:00,53.0,39.0,30.01,NE,43,1.0,2.0,59,0.00,,,0.00,weatherlink.com 1.10,2013-02-06 01:47:00,
2013-02-05 20:02:00,53.8,38.0,30.01,NE,47,0.0,3.0,55,0.00,,,0.00,weatherlink.com 1.10,2013-02-06 02:02:00,
2013-02-05 20:17:00,53.2,37.0,30.02,NE,48,0.0,0.0,55,0.00,,,0.00,weatherlink.com 1.10,2013-02-06 02:17:00,
2013-02-05 20:32:00,52.4,36.0,30.02,NE,48,0.0,0.0,55,0.00,,,0.00,weatherlink.com 1.10,2013-02-06 02:32:00,
2013-02-05 20:47:00,52.0,36.0,30.02,NE,48,0.0,0.0,54,0.00,,,0.00,weatherlink.com 1.10,2013-02-06 02:47:00,
2013-02-05 21:02:00,51.8,35.0,30.02,NE,48,0.0,0.0,54,0.00,,,0.00,weatherlink.com 1.10,2013-02-06 03:02:00,
2013-02-05 21:17:00,50.6,35.0,30.02,NE,48,0.0,0.0,55,0.00,,,0.00,weatherlink.com 1.10,2013-02-06 03:17:00,
2013-02-05 21:32:00,50.5,35.0,30.03,NE,48,0.0,0.0,56,0.00,,,0.00,weatherlink.com 1.10,2013-02-06 03:32:00,
2013-02-05 21:47:00,48.6,35.0,30.03,NE,48,0.0,0.0,59,0.00,,,0.00,weatherlink.com 1.10,2013-02-06 03:47:00,
2013-02-05 22:02:00,47.3,35.0,30.03,NE,48,0.0,0.0,62,0.00,,,0.00,weatherlink.com 1.10,2013-02-06 04:02:00,
2013-02-05 22:17:00,45.8,34.0,30.03,NE,48,0.0,0.0,64,0.00,,,0.00,weatherlink.com 1.10,2013-02-06 04:17:00,
2013-02-05 22:32:00,46.4,34.0,30.04,NE,48,0.0,0.0,63,0.00,,,0.00,weatherlink.com 1.10,2013-02-06 04:32:00,
2013-02-05 22:47:00,47.4,35.0,30.04,NE,48,0.0,0.0,62,0.00,,,0.00,weatherlink.com 1.10,2013-02-06 04:47:00,
2013-02-05 23:02:00,45.7,34.0,30.04,NE,48,0.0,0.0,64,0.00,,,0.00,weatherlink.com 1.10,2013-02-06 05:02:00,
2013-02-05 23:17:00,45.4,34.0,30.04,NE,48,0.0,0.0,65,0.00,,,0.00,weatherlink.com 1.10,2013-02-06 05:17:00,
2013-02-05 23:32:00,44.5,34.0,30.04,NE,48,0.0,0.0,67,0.00,,,0.00,weatherlink.com 1.10,2013-02-06 05:32:00,
2013-02-05 23:47:00,44.3,34.0,30.04,NE,48,0.0,0.0,68,0.00,,,0.00,weatherlink.com 1.10,2013-02-06 05:47:00,